sensor_id;sensor_type;location;lat;lon;timestamp;pressure;altitude;pressure_sealevel;temperature;humidity
31092;BME280;67728;53.122;12.776;2023-06-14T00:03:27;101008.19;;;12.29;70.64
31092;BME280;67728;53.122;12.776;2023-06-14T00:05:00;100999.66;;;12.19;71.62
31092;BME280;67728;53.122;12.776;2023-06-14T00:06:32;101000.56;;;12.18;70.18
31092;BME280;67728;53.122;12.776;2023-06-14T00:08:04;100998.78;;;12.20;70.50
31092;BME280;67728;53.122;12.776;2023-06-14T00:09:38;100998.75;;;12.23;70.40
31092;BME280;67728;53.122;12.776;2023-06-14T00:11:09;101010.44;;;11.98;71.25
31092;BME280;67728;53.122;12.776;2023-06-14T00:12:41;101009.28;;;12.14;71.37
31092;BME280;67728;53.122;12.776;2023-06-14T00:14:12;101007.66;;;12.09;71.06
31092;BME280;67728;53.122;12.776;2023-06-14T00:15:43;101000.81;;;12.03;71.39
31092;BME280;67728;53.122;12.776;2023-06-14T00:17:15;101011.03;;;12.15;70.31
31092;BME280;67728;53.122;12.776;2023-06-14T00:18:47;101010.97;;;12.17;69.82
31092;BME280;67728;53.122;12.776;2023-06-14T00:20:20;101017.22;;;12.07;71.31
31092;BME280;67728;53.122;12.776;2023-06-14T00:21:52;101021.53;;;12.09;71.00
31092;BME280;67728;53.122;12.776;2023-06-14T00:23:24;101017.22;;;12.08;71.14
31092;BME280;67728;53.122;12.776;2023-06-14T00:24:55;101015.47;;;12.09;71.28
31092;BME280;67728;53.122;12.776;2023-06-14T00:26:27;101016.22;;;12.15;71.82
31092;BME280;67728;53.122;12.776;2023-06-14T00:27:59;101023.03;;;12.24;71.71
31092;BME280;67728;53.122;12.776;2023-06-14T00:29:30;101016.19;;;12.17;72.09
31092;BME280;67728;53.122;12.776;2023-06-14T00:31:02;101016.50;;;12.00;71.93
31092;BME280;67728;53.122;12.776;2023-06-14T00:32:34;101017.94;;;12.16;72.25
31092;BME280;67728;53.122;12.776;2023-06-14T00:34:04;101013.63;;;12.15;72.08
31092;BME280;67728;53.122;12.776;2023-06-14T00:35:37;101019.75;;;12.11;71.88
31092;BME280;67728;53.122;12.776;2023-06-14T00:37:09;101028.69;;;11.95;73.17
31092;BME280;67728;53.122;12.776;2023-06-14T00:38:40;101026.84;;;12.02;71.85
31092;BME280;67728;53.122;12.776;2023-06-14T00:40:12;101027.81;;;11.96;73.46
31092;BME280;67728;53.122;12.776;2023-06-14T00:41:44;101031.88;;;12.12;72.60
31092;BME280;67728;53.122;12.776;2023-06-14T00:43:15;101021.47;;;12.14;73.59
31092;BME280;67728;53.122;12.776;2023-06-14T00:44:46;101030.16;;;12.11;72.83
31092;BME280;67728;53.122;12.776;2023-06-14T00:46:18;101032.00;;;12.05;73.04
31092;BME280;67728;53.122;12.776;2023-06-14T00:47:50;101036.59;;;11.87;74.32
31092;BME280;67728;53.122;12.776;2023-06-14T00:49:25;101040.16;;;11.83;73.46
31092;BME280;67728;53.122;12.776;2023-06-14T00:50:59;101040.06;;;11.88;72.38
31092;BME280;67728;53.122;12.776;2023-06-14T00:52:34;101038.47;;;11.81;72.45
31092;BME280;67728;53.122;12.776;2023-06-14T00:54:06;101039.91;;;12.00;72.41
31092;BME280;67728;53.122;12.776;2023-06-14T00:55:38;101040.72;;;12.02;72.70
31092;BME280;67728;53.122;12.776;2023-06-14T00:57:10;101037.06;;;12.12;71.94
31092;BME280;67728;53.122;12.776;2023-06-14T00:58:41;101032.81;;;12.08;71.68
31092;BME280;67728;53.122;12.776;2023-06-14T01:00:13;101032.81;;;12.08;71.08
31092;BME280;67728;53.122;12.776;2023-06-14T01:01:45;101033.84;;;11.98;71.78
31092;BME280;67728;53.122;12.776;2023-06-14T01:03:16;101028.97;;;11.78;71.68
31092;BME280;67728;53.122;12.776;2023-06-14T01:04:53;101034.09;;;11.83;72.01
31092;BME280;67728;53.122;12.776;2023-06-14T01:06:30;101025.25;;;11.94;72.66
31092;BME280;67728;53.122;12.776;2023-06-14T01:08:15;101035.66;;;11.93;72.38
31092;BME280;67728;53.122;12.776;2023-06-14T01:10:03;101034.88;;;11.88;71.84
31092;BME280;67728;53.122;12.776;2023-06-14T01:11:43;101032.41;;;11.80;71.62
31092;BME280;67728;53.122;12.776;2023-06-14T01:13:20;101033.34;;;11.75;71.91
31092;BME280;67728;53.122;12.776;2023-06-14T01:14:55;101029.88;;;11.74;71.73
31092;BME280;67728;53.122;12.776;2023-06-14T01:16:29;101034.25;;;11.71;72.97
31092;BME280;67728;53.122;12.776;2023-06-14T01:18:04;101035.13;;;11.68;72.55
31092;BME280;67728;53.122;12.776;2023-06-14T01:19:36;101036.22;;;11.54;73.46
31092;BME280;67728;53.122;12.776;2023-06-14T01:21:19;101043.16;;;11.53;73.25
31092;BME280;67728;53.122;12.776;2023-06-14T01:22:53;101039.81;;;11.45;73.33
31092;BME280;67728;53.122;12.776;2023-06-14T01:24:25;101046.03;;;11.33;73.71
31092;BME280;67728;53.122;12.776;2023-06-14T01:26:02;101052.06;;;11.35;73.78
31092;BME280;67728;53.122;12.776;2023-06-14T01:27:33;101054.69;;;11.34;73.90
31092;BME280;67728;53.122;12.776;2023-06-14T01:29:08;101049.47;;;11.34;74.28
31092;BME280;67728;53.122;12.776;2023-06-14T01:30:40;101045.16;;;11.34;74.23
31092;BME280;67728;53.122;12.776;2023-06-14T01:32:15;101040.69;;;11.46;72.96
31092;BME280;67728;53.122;12.776;2023-06-14T01:33:49;101046.03;;;11.35;73.17
31092;BME280;67728;53.122;12.776;2023-06-14T01:35:21;101037.25;;;11.42;72.93
31092;BME280;67728;53.122;12.776;2023-06-14T01:36:53;101038.13;;;11.43;73.07
31092;BME280;67728;53.122;12.776;2023-06-14T01:38:26;101043.38;;;11.36;72.61
31092;BME280;67728;53.122;12.776;2023-06-14T01:39:59;101045.44;;;11.13;73.26
31092;BME280;67728;53.122;12.776;2023-06-14T01:41:31;101050.97;;;10.81;74.42
31092;BME280;67728;53.122;12.776;2023-06-14T01:43:03;101049.22;;;10.87;74.63
31092;BME280;67728;53.122;12.776;2023-06-14T01:44:35;101049.28;;;10.80;75.27
31092;BME280;67728;53.122;12.776;2023-06-14T01:46:08;101045.69;;;10.91;75.06
31092;BME280;67728;53.122;12.776;2023-06-14T01:47:40;101046.56;;;10.90;74.82
31092;BME280;67728;53.122;12.776;2023-06-14T01:49:12;101046.38;;;11.08;74.54
31092;BME280;67728;53.122;12.776;2023-06-14T01:50:44;101045.72;;;10.88;74.73
31092;BME280;67728;53.122;12.776;2023-06-14T01:52:15;101034.34;;;10.98;74.38
31092;BME280;67728;53.122;12.776;2023-06-14T01:53:48;101043.88;;;10.99;75.22
31092;BME280;67728;53.122;12.776;2023-06-14T01:55:19;101042.16;;;10.99;74.68
31092;BME280;67728;53.122;12.776;2023-06-14T01:56:52;101040.38;;;11.03;74.50
31092;BME280;67728;53.122;12.776;2023-06-14T01:58:22;101037.78;;;11.01;74.21
31092;BME280;67728;53.122;12.776;2023-06-14T01:59:55;101039.63;;;10.93;74.72
31092;BME280;67728;53.122;12.776;2023-06-14T02:01:25;101035.34;;;10.89;74.79
31092;BME280;67728;53.122;12.776;2023-06-14T02:02:57;101035.56;;;10.69;74.76
31092;BME280;67728;53.122;12.776;2023-06-14T02:04:27;101033.94;;;10.59;75.62
31092;BME280;67728;53.122;12.776;2023-06-14T02:05:59;101044.22;;;10.70;75.44
31092;BME280;67728;53.122;12.776;2023-06-14T02:07:31;101050.31;;;10.64;75.71
31092;BME280;67728;53.122;12.776;2023-06-14T02:09:03;101056.56;;;10.44;76.48
31092;BME280;67728;53.122;12.776;2023-06-14T02:10:35;101055.66;;;10.51;76.02
31092;BME280;67728;53.122;12.776;2023-06-14T02:12:07;101048.66;;;10.59;75.77
31092;BME280;67728;53.122;12.776;2023-06-14T02:13:39;101052.06;;;10.62;75.24
31092;BME280;67728;53.122;12.776;2023-06-14T02:15:12;101050.38;;;10.58;75.97
31092;BME280;67728;53.122;12.776;2023-06-14T02:16:47;101063.44;;;10.49;76.78
31092;BME280;67728;53.122;12.776;2023-06-14T02:18:20;101055.94;;;10.11;77.49
31092;BME280;67728;53.122;12.776;2023-06-14T02:19:52;101062.03;;;10.07;78.66
31092;BME280;67728;53.122;12.776;2023-06-14T02:21:24;101061.97;;;10.21;78.68
31092;BME280;67728;53.122;12.776;2023-06-14T02:22:55;101061.00;;;10.31;78.26
31092;BME280;67728;53.122;12.776;2023-06-14T02:24:28;101050.47;;;10.46;76.15
31092;BME280;67728;53.122;12.776;2023-06-14T02:26:00;101057.41;;;10.49;74.83
31092;BME280;67728;53.122;12.776;2023-06-14T02:27:33;101059.09;;;10.50;74.11
31092;BME280;67728;53.122;12.776;2023-06-14T02:29:04;101056.56;;;10.44;74.33
31092;BME280;67728;53.122;12.776;2023-06-14T02:30:39;101063.41;;;10.54;74.73
31092;BME280;67728;53.122;12.776;2023-06-14T02:32:10;101059.91;;;10.55;75.14
31092;BME280;67728;53.122;12.776;2023-06-14T02:33:42;101062.47;;;10.58;74.35
31092;BME280;67728;53.122;12.776;2023-06-14T02:35:14;101057.28;;;10.58;74.05
31092;BME280;67728;53.122;12.776;2023-06-14T02:36:45;101054.72;;;10.55;75.08
31092;BME280;67728;53.122;12.776;2023-06-14T02:38:18;101050.38;;;10.58;74.90
31092;BME280;67728;53.122;12.776;2023-06-14T02:39:51;101052.22;;;10.47;75.43
31092;BME280;67728;53.122;12.776;2023-06-14T02:41:21;101049.81;;;10.25;76.46
31092;BME280;67728;53.122;12.776;2023-06-14T02:42:53;101056.84;;;10.06;77.85
31092;BME280;67728;53.122;12.776;2023-06-14T02:44:24;101053.53;;;9.90;78.48
31092;BME280;67728;53.122;12.776;2023-06-14T02:45:57;101054.41;;;9.89;78.34
31092;BME280;67728;53.122;12.776;2023-06-14T02:47:27;101049.25;;;9.85;77.85
31092;BME280;67728;53.122;12.776;2023-06-14T02:48:59;101050.97;;;9.89;78.24
31092;BME280;67728;53.122;12.776;2023-06-14T02:50:31;101050.91;;;9.95;78.41
31092;BME280;67728;53.122;12.776;2023-06-14T02:52:03;101055.94;;;10.11;77.47
31092;BME280;67728;53.122;12.776;2023-06-14T02:53:33;101053.34;;;10.17;76.79
31092;BME280;67728;53.122;12.776;2023-06-14T02:55:07;101052.53;;;10.08;77.42
31092;BME280;67728;53.122;12.776;2023-06-14T02:56:39;101058.63;;;10.05;77.68
31092;BME280;67728;53.122;12.776;2023-06-14T02:58:10;101053.41;;;10.07;77.80
31092;BME280;67728;53.122;12.776;2023-06-14T02:59:43;101058.69;;;9.96;78.74
31092;BME280;67728;53.122;12.776;2023-06-14T03:01:15;101055.34;;;9.76;80.05
31092;BME280;67728;53.122;12.776;2023-06-14T03:02:45;101057.84;;;9.90;80.21
31092;BME280;67728;53.122;12.776;2023-06-14T03:04:17;101057.03;;;9.83;80.43
31092;BME280;67728;53.122;12.776;2023-06-14T03:05:48;101051.78;;;9.92;79.89
31092;BME280;67728;53.122;12.776;2023-06-14T03:07:21;101053.50;;;9.96;78.90
31092;BME280;67728;53.122;12.776;2023-06-14T03:08:53;101050.94;;;9.90;79.35
31092;BME280;67728;53.122;12.776;2023-06-14T03:10:26;101057.88;;;9.85;78.98
31092;BME280;67728;53.122;12.776;2023-06-14T03:11:59;101053.50;;;9.93;79.29
31092;BME280;67728;53.122;12.776;2023-06-14T03:13:30;101056.03;;;10.02;79.21
31092;BME280;67728;53.122;12.776;2023-06-14T03:15:03;101058.59;;;10.04;79.70
31092;BME280;67728;53.122;12.776;2023-06-14T03:16:34;101054.41;;;9.88;80.46
31092;BME280;67728;53.122;12.776;2023-06-14T03:18:05;101061.25;;;9.96;80.07
31092;BME280;67728;53.122;12.776;2023-06-14T03:19:39;101057.81;;;9.97;78.88
31092;BME280;67728;53.122;12.776;2023-06-14T03:21:11;101057.75;;;10.00;79.09
31092;BME280;67728;53.122;12.776;2023-06-14T03:22:43;101056.88;;;10.04;78.59
31092;BME280;67728;53.122;12.776;2023-06-14T03:24:16;101065.47;;;10.11;77.92
31092;BME280;67728;53.122;12.776;2023-06-14T03:25:49;101060.38;;;10.02;77.98
31092;BME280;67728;53.122;12.776;2023-06-14T03:27:21;101060.41;;;9.96;78.45
31092;BME280;67728;53.122;12.776;2023-06-14T03:28:53;101054.31;;;10.03;77.66
31092;BME280;67728;53.122;12.776;2023-06-14T03:30:25;101060.53;;;9.76;79.31
31092;BME280;67728;53.122;12.776;2023-06-14T03:31:58;101054.56;;;9.65;80.14
31092;BME280;67728;53.122;12.776;2023-06-14T03:33:30;101056.34;;;9.57;81.32
31092;BME280;67728;53.122;12.776;2023-06-14T03:35:01;101058.78;;;9.80;81.57
31092;BME280;67728;53.122;12.776;2023-06-14T03:36:32;101061.25;;;9.96;80.33
31092;BME280;67728;53.122;12.776;2023-06-14T03:38:04;101059.56;;;9.91;79.55
31092;BME280;67728;53.122;12.776;2023-06-14T03:39:34;101064.03;;;9.72;80.26
31092;BME280;67728;53.122;12.776;2023-06-14T03:41:08;101070.97;;;9.64;80.54
31092;BME280;67728;53.122;12.776;2023-06-14T03:42:39;101078.81;;;9.56;80.66
31092;BME280;67728;53.122;12.776;2023-06-14T03:44:11;101071.00;;;9.58;80.39
31092;BME280;67728;53.122;12.776;2023-06-14T03:45:42;101077.06;;;9.58;80.11
31092;BME280;67728;53.122;12.776;2023-06-14T03:47:13;101077.94;;;9.54;80.86
31092;BME280;67728;53.122;12.776;2023-06-14T03:48:45;101077.06;;;9.58;80.93
31092;BME280;67728;53.122;12.776;2023-06-14T03:50:17;101079.59;;;9.69;81.07
31092;BME280;67728;53.122;12.776;2023-06-14T03:51:49;101089.91;;;9.71;80.78
31092;BME280;67728;53.122;12.776;2023-06-14T03:53:22;101089.91;;;9.77;82.22
31092;BME280;67728;53.122;12.776;2023-06-14T03:54:53;101087.31;;;9.77;81.83
31092;BME280;67728;53.122;12.776;2023-06-14T03:56:27;101093.38;;;9.76;82.12
31092;BME280;67728;53.122;12.776;2023-06-14T03:57:57;101087.22;;;9.92;81.55
31092;BME280;67728;53.122;12.776;2023-06-14T03:59:29;101094.00;;;10.06;81.46
31092;BME280;67728;53.122;12.776;2023-06-14T04:01:01;101083.66;;;10.03;80.86
31092;BME280;67728;53.122;12.776;2023-06-14T04:02:32;101087.94;;;10.09;80.52
31092;BME280;67728;53.122;12.776;2023-06-14T04:04:04;101086.19;;;10.14;80.43
31092;BME280;67728;53.122;12.776;2023-06-14T04:05:36;101087.09;;;10.13;80.28
31092;BME280;67728;53.122;12.776;2023-06-14T04:07:07;101087.97;;;10.13;80.58
31092;BME280;67728;53.122;12.776;2023-06-14T04:08:39;101091.38;;;10.18;80.63
31092;BME280;67728;53.122;12.776;2023-06-14T04:10:12;101086.19;;;10.14;82.74
31092;BME280;67728;53.122;12.776;2023-06-14T04:11:45;101088.78;;;10.14;82.73
31092;BME280;67728;53.122;12.776;2023-06-14T04:13:17;101093.97;;;10.15;82.79
31092;BME280;67728;53.122;12.776;2023-06-14T04:14:48;101091.31;;;10.23;82.88
31092;BME280;67728;53.122;12.776;2023-06-14T04:16:19;101081.88;;;10.19;82.48
31092;BME280;67728;53.122;12.776;2023-06-14T04:17:51;101096.47;;;10.25;81.79
31092;BME280;67728;53.122;12.776;2023-06-14T04:19:22;101094.75;;;10.25;82.39
31092;BME280;67728;53.122;12.776;2023-06-14T04:20:54;101092.13;;;10.33;83.09
31092;BME280;67728;53.122;12.776;2023-06-14T04:22:27;101087.78;;;10.33;82.37
31092;BME280;67728;53.122;12.776;2023-06-14T04:23:59;101086.88;;;10.39;82.28
31092;BME280;67728;53.122;12.776;2023-06-14T04:25:31;101083.34;;;10.49;82.31
31092;BME280;67728;53.122;12.776;2023-06-14T04:27:05;101086.78;;;10.48;83.04
31092;BME280;67728;53.122;12.776;2023-06-14T04:28:37;101088.44;;;10.59;82.11
31092;BME280;67728;53.122;12.776;2023-06-14T04:30:11;101091.03;;;10.56;82.26
31092;BME280;67728;53.122;12.776;2023-06-14T04:31:43;101088.31;;;10.70;82.50
31092;BME280;67728;53.122;12.776;2023-06-14T04:33:15;101089.09;;;10.76;81.84
31092;BME280;67728;53.122;12.776;2023-06-14T04:34:47;101089.84;;;10.88;80.71
31092;BME280;67728;53.122;12.776;2023-06-14T04:36:19;101093.31;;;10.88;80.35
31092;BME280;67728;53.122;12.776;2023-06-14T04:37:51;101090.59;;;11.00;80.38
31092;BME280;67728;53.122;12.776;2023-06-14T04:39:23;101099.16;;;11.08;80.03
31092;BME280;67728;53.122;12.776;2023-06-14T04:40:55;101089.44;;;11.22;79.55
31092;BME280;67728;53.122;12.776;2023-06-14T04:42:28;101093.66;;;11.32;78.65
31092;BME280;67728;53.122;12.776;2023-06-14T04:44:01;101094.28;;;11.50;80.75
31092;BME280;67728;53.122;12.776;2023-06-14T04:45:32;101090.81;;;11.51;81.34
31092;BME280;67728;53.122;12.776;2023-06-14T04:47:03;101098.41;;;11.66;81.46
31092;BME280;67728;53.122;12.776;2023-06-14T04:48:37;101101.72;;;11.80;80.83
31092;BME280;67728;53.122;12.776;2023-06-14T04:50:10;101092.84;;;11.93;81.34
31092;BME280;67728;53.122;12.776;2023-06-14T04:51:44;101099.81;;;11.91;80.82
31092;BME280;67728;53.122;12.776;2023-06-14T04:53:17;101098.00;;;11.97;79.59
31092;BME280;67728;53.122;12.776;2023-06-14T04:54:51;101098.75;;;12.04;79.77
31092;BME280;67728;53.122;12.776;2023-06-14T04:56:24;101097.84;;;12.07;79.28
31092;BME280;67728;53.122;12.776;2023-06-14T04:57:57;101103.81;;;12.13;79.83
31092;BME280;67728;53.122;12.776;2023-06-14T04:59:30;101104.56;;;12.20;79.23
31092;BME280;67728;53.122;12.776;2023-06-14T05:01:03;101110.53;;;12.25;80.49
31092;BME280;67728;53.122;12.776;2023-06-14T05:02:35;101113.13;;;12.26;80.01
31092;BME280;67728;53.122;12.776;2023-06-14T05:04:08;101116.59;;;12.25;80.79
31092;BME280;67728;53.122;12.776;2023-06-14T05:05:40;101115.59;;;12.34;80.61
31092;BME280;67728;53.122;12.776;2023-06-14T05:07:11;101112.88;;;12.43;80.03
31092;BME280;67728;53.122;12.776;2023-06-14T05:08:44;101108.53;;;12.43;79.49
31092;BME280;67728;53.122;12.776;2023-06-14T05:10:16;101108.53;;;12.42;80.17
31092;BME280;67728;53.122;12.776;2023-06-14T05:11:46;101109.31;;;12.48;80.85
31092;BME280;67728;53.122;12.776;2023-06-14T05:13:19;101115.19;;;12.59;80.07
31092;BME280;67728;53.122;12.776;2023-06-14T05:14:53;101111.47;;;12.73;78.71
31092;BME280;67728;53.122;12.776;2023-06-14T05:16:24;101112.31;;;12.75;78.58
31092;BME280;67728;53.122;12.776;2023-06-14T05:17:59;101111.22;;;12.86;78.84
31092;BME280;67728;53.122;12.776;2023-06-14T05:19:31;101104.81;;;13.04;77.51
31092;BME280;67728;53.122;12.776;2023-06-14T05:21:03;101115.91;;;13.15;77.92
31092;BME280;67728;53.122;12.776;2023-06-14T05:22:34;101114.88;;;13.22;77.72
31092;BME280;67728;53.122;12.776;2023-06-14T05:24:06;101114.72;;;13.31;77.42
31092;BME280;67728;53.122;12.776;2023-06-14T05:25:39;101120.75;;;13.33;77.69
31092;BME280;67728;53.122;12.776;2023-06-14T05:27:11;101116.91;;;13.51;77.61
31092;BME280;67728;53.122;12.776;2023-06-14T05:28:44;101115.56;;;13.73;76.46
31092;BME280;67728;53.122;12.776;2023-06-14T05:30:16;101110.75;;;13.95;76.14
31092;BME280;67728;53.122;12.776;2023-06-14T05:31:48;101112.16;;;14.08;74.72
31092;BME280;67728;53.122;12.776;2023-06-14T05:33:20;101105.34;;;14.01;74.66
31092;BME280;67728;53.122;12.776;2023-06-14T05:34:51;101107.38;;;14.26;73.47
31092;BME280;67728;53.122;12.776;2023-06-14T05:36:23;101109.59;;;14.43;72.99
31092;BME280;67728;53.122;12.776;2023-06-14T05:37:53;101104.44;;;14.40;72.85
31092;BME280;67728;53.122;12.776;2023-06-14T05:39:25;101114.09;;;14.38;74.32
31092;BME280;67728;53.122;12.776;2023-06-14T05:40:58;101116.78;;;14.33;73.67
31092;BME280;67728;53.122;12.776;2023-06-14T05:42:29;101113.34;;;14.31;74.10
31092;BME280;67728;53.122;12.776;2023-06-14T05:44:02;101120.25;;;14.34;74.28
31092;BME280;67728;53.122;12.776;2023-06-14T05:45:34;101117.50;;;14.40;74.44
31092;BME280;67728;53.122;12.776;2023-06-14T05:47:06;101123.53;;;14.42;74.43
31092;BME280;67728;53.122;12.776;2023-06-14T05:48:37;101120.03;;;14.43;74.44
31092;BME280;67728;53.122;12.776;2023-06-14T05:50:10;101116.56;;;14.43;73.68
31092;BME280;67728;53.122;12.776;2023-06-14T05:51:41;101127.13;;;14.38;73.96
31092;BME280;67728;53.122;12.776;2023-06-14T05:53:13;101127.69;;;14.49;74.84
31092;BME280;67728;53.122;12.776;2023-06-14T05:54:44;101123.13;;;14.57;75.20
31092;BME280;67728;53.122;12.776;2023-06-14T05:56:17;101127.31;;;14.64;74.61
31092;BME280;67728;53.122;12.776;2023-06-14T05:57:49;101126.53;;;14.61;74.97
31092;BME280;67728;53.122;12.776;2023-06-14T05:59:22;101130.72;;;14.68;74.48
31092;BME280;67728;53.122;12.776;2023-06-14T06:00:53;101120.88;;;14.77;73.83
31092;BME280;67728;53.122;12.776;2023-06-14T06:02:25;101119.75;;;14.87;72.76
31092;BME280;67728;53.122;12.776;2023-06-14T06:03:57;101118.50;;;15.01;72.42
31092;BME280;67728;53.122;12.776;2023-06-14T06:05:27;101123.50;;;15.10;72.79
31092;BME280;67728;53.122;12.776;2023-06-14T06:06:59;101123.19;;;15.20;71.55
31092;BME280;67728;53.122;12.776;2023-06-14T06:08:31;101114.31;;;15.27;71.04
31092;BME280;67728;53.122;12.776;2023-06-14T06:10:04;101118.47;;;15.33;71.24
31092;BME280;67728;53.122;12.776;2023-06-14T06:11:36;101121.19;;;15.30;72.11
31092;BME280;67728;53.122;12.776;2023-06-14T06:13:08;101121.88;;;15.36;72.00
31092;BME280;67728;53.122;12.776;2023-06-14T06:14:41;101120.63;;;15.51;70.76
31092;BME280;67728;53.122;12.776;2023-06-14T06:16:13;101121.88;;;15.67;69.58
31092;BME280;67728;53.122;12.776;2023-06-14T06:17:46;101126.72;;;15.79;69.70
31092;BME280;67728;53.122;12.776;2023-06-14T06:19:17;101117.72;;;15.89;68.18
31092;BME280;67728;53.122;12.776;2023-06-14T06:20:49;101126.50;;;15.87;67.99
31092;BME280;67728;53.122;12.776;2023-06-14T06:22:21;101127.00;;;15.98;68.85
31092;BME280;67728;53.122;12.776;2023-06-14T06:23:53;101130.13;;;16.10;67.86
31092;BME280;67728;53.122;12.776;2023-06-14T06:25:25;101133.69;;;16.08;68.00
31092;BME280;67728;53.122;12.776;2023-06-14T06:26:56;101127.50;;;16.10;67.54
31092;BME280;67728;53.122;12.776;2023-06-14T06:28:27;101127.59;;;16.07;66.37
31092;BME280;67728;53.122;12.776;2023-06-14T06:30:00;101123.75;;;16.19;66.87
31092;BME280;67728;53.122;12.776;2023-06-14T06:31:32;101129.00;;;16.17;67.60
31092;BME280;67728;53.122;12.776;2023-06-14T06:33:04;101133.81;;;16.31;66.73
31092;BME280;67728;53.122;12.776;2023-06-14T06:34:35;101127.53;;;16.37;67.07
31092;BME280;67728;53.122;12.776;2023-06-14T06:36:07;101126.41;;;16.44;67.49
31092;BME280;67728;53.122;12.776;2023-06-14T06:37:39;101126.16;;;16.51;66.05
31092;BME280;67728;53.122;12.776;2023-06-14T06:39:11;101129.25;;;16.38;66.69
31092;BME280;67728;53.122;12.776;2023-06-14T06:40:42;101125.50;;;16.45;67.30
31092;BME280;67728;53.122;12.776;2023-06-14T06:42:14;101129.53;;;16.56;67.03
31092;BME280;67728;53.122;12.776;2023-06-14T06:43:45;101128.59;;;16.57;66.57
31092;BME280;67728;53.122;12.776;2023-06-14T06:45:18;101124.53;;;16.73;65.38
31092;BME280;67728;53.122;12.776;2023-06-14T06:46:50;101129.22;;;16.90;65.53
31092;BME280;67728;53.122;12.776;2023-06-14T06:48:22;101120.19;;;16.99;64.24
31092;BME280;67728;53.122;12.776;2023-06-14T06:49:53;101130.06;;;17.15;62.81
31092;BME280;67728;53.122;12.776;2023-06-14T06:51:25;101132.47;;;17.21;63.17
31092;BME280;67728;53.122;12.776;2023-06-14T06:52:57;101129.75;;;17.24;62.72
31092;BME280;67728;53.122;12.776;2023-06-14T06:54:28;101124.84;;;17.39;61.21
31092;BME280;67728;53.122;12.776;2023-06-14T06:55:59;101130.03;;;17.65;60.27
31092;BME280;67728;53.122;12.776;2023-06-14T06:57:30;101131.16;;;17.33;60.40
31092;BME280;67728;53.122;12.776;2023-06-14T06:59:02;101126.56;;;17.40;59.94
31092;BME280;67728;53.122;12.776;2023-06-14T07:00:35;101132.31;;;17.49;60.58
31092;BME280;67728;53.122;12.776;2023-06-14T07:02:07;101127.19;;;17.46;60.17
31092;BME280;67728;53.122;12.776;2023-06-14T07:03:39;101130.06;;;17.63;59.48
31092;BME280;67728;53.122;12.776;2023-06-14T07:05:10;101129.91;;;17.68;60.01
31092;BME280;67728;53.122;12.776;2023-06-14T07:06:43;101132.94;;;17.79;59.97
31092;BME280;67728;53.122;12.776;2023-06-14T07:08:14;101132.63;;;18.10;58.44
31092;BME280;67728;53.122;12.776;2023-06-14T07:09:46;101132.56;;;18.11;58.05
31092;BME280;67728;53.122;12.776;2023-06-14T07:11:18;101135.00;;;18.37;57.36
31092;BME280;67728;53.122;12.776;2023-06-14T07:12:50;101140.72;;;18.69;56.45
31092;BME280;67728;53.122;12.776;2023-06-14T07:14:22;101130.31;;;18.66;55.99
31092;BME280;67728;53.122;12.776;2023-06-14T07:15:58;101128.91;;;18.79;56.16
31092;BME280;67728;53.122;12.776;2023-06-14T07:17:30;101129.66;;;18.61;56.72
31092;BME280;67728;53.122;12.776;2023-06-14T07:19:02;101124.81;;;19.12;55.61
31092;BME280;67728;53.122;12.776;2023-06-14T07:20:33;101131.59;;;19.56;55.37
31092;BME280;67728;53.122;12.776;2023-06-14T07:22:05;101128.06;;;19.76;54.73
31092;BME280;67728;53.122;12.776;2023-06-14T07:23:36;101133.59;;;19.89;54.51
31092;BME280;67728;53.122;12.776;2023-06-14T07:25:09;101134.88;;;19.80;54.40
31092;BME280;67728;53.122;12.776;2023-06-14T07:26:43;101132.16;;;20.00;54.81
31092;BME280;67728;53.122;12.776;2023-06-14T07:28:16;101132.53;;;19.35;54.71
31092;BME280;67728;53.122;12.776;2023-06-14T07:29:47;101136.38;;;19.67;54.64
31092;BME280;67728;53.122;12.776;2023-06-14T07:31:20;101135.09;;;19.94;53.46
31092;BME280;67728;53.122;12.776;2023-06-14T07:32:52;101129.66;;;19.97;51.90
31092;BME280;67728;53.122;12.776;2023-06-14T07:34:24;101132.84;;;20.04;52.46
31092;BME280;67728;53.122;12.776;2023-06-14T07:35:56;101132.91;;;20.21;52.41
31092;BME280;67728;53.122;12.776;2023-06-14T07:37:28;101135.28;;;19.90;52.97
31092;BME280;67728;53.122;12.776;2023-06-14T07:38:59;101130.34;;;20.38;52.64
31092;BME280;67728;53.122;12.776;2023-06-14T07:40:33;101128.84;;;20.50;50.44
31092;BME280;67728;53.122;12.776;2023-06-14T07:42:06;101132.25;;;20.35;50.44
31092;BME280;67728;53.122;12.776;2023-06-14T07:43:37;101133.59;;;19.89;50.82
31092;BME280;67728;53.122;12.776;2023-06-14T07:45:10;101123.59;;;20.67;49.82
31092;BME280;67728;53.122;12.776;2023-06-14T07:46:43;101126.91;;;21.05;48.89
31092;BME280;67728;53.122;12.776;2023-06-14T07:48:16;101126.28;;;20.31;50.79
31092;BME280;67728;53.122;12.776;2023-06-14T07:49:47;101121.66;;;20.87;50.28
31092;BME280;67728;53.122;12.776;2023-06-14T07:51:19;101122.03;;;21.14;49.78
31092;BME280;67728;53.122;12.776;2023-06-14T07:52:52;101122.78;;;20.31;51.03
31092;BME280;67728;53.122;12.776;2023-06-14T07:54:23;101113.84;;;20.52;50.36
31092;BME280;67728;53.122;12.776;2023-06-14T07:55:56;101115.59;;;21.03;49.41
31092;BME280;67728;53.122;12.776;2023-06-14T07:57:28;101122.22;;;21.11;50.01
31092;BME280;67728;53.122;12.776;2023-06-14T07:59:00;101121.66;;;20.87;48.04